createdAt,value
2023-03-08T00:01:00.615Z,-23268.63
2023-03-08T00:03:04.800Z,-23270.69
2023-03-08T00:05:08.169Z,-23271.66
2023-03-08T00:07:10.876Z,-23270.38
2023-03-08T00:09:13.497Z,-23272.28
2023-03-08T00:11:18.008Z,-23271.97
2023-03-08T00:13:20.706Z,-23272.91
2023-03-08T00:15:23.398Z,-23272.91
2023-03-08T00:17:26.249Z,-23274.03
2023-03-08T00:19:28.874Z,-23275.47
2023-03-08T00:21:31.459Z,-23276.09
2023-03-08T00:23:34.116Z,-23273.88
2023-03-08T00:25:36.775Z,-23273.22
2023-03-08T00:27:40.756Z,-23274.50
2023-03-08T00:29:43.375Z,-23274.81
2023-03-08T00:31:46.038Z,-23276.44
2023-03-08T00:33:48.891Z,-23276.09
2023-03-08T00:36:02.011Z,-23275.47
2023-03-08T00:38:04.768Z,-23276.25
2023-03-08T00:40:09.843Z,-23276.91
2023-03-08T00:42:12.417Z,-23276.44
2023-03-08T00:44:16.398Z,-23274.66
2023-03-08T00:46:19.162Z,-23274.34
2023-03-08T00:48:22.365Z,-23275.47
2023-03-08T00:50:24.925Z,-23272.59
2023-03-08T00:52:27.531Z,-23270.84
2023-03-08T00:54:30.630Z,-23268.94
2023-03-08T00:56:33.253Z,-23269.41
2023-03-08T00:58:38.511Z,-23268.44
2023-03-08T01:00:44.541Z,-23266.69
2023-03-08T01:02:47.228Z,-23266.69
2023-03-08T01:04:49.925Z,-23268.28
2023-03-08T01:06:52.616Z,-23266.53
2023-03-08T01:08:55.215Z,-23262.88
2023-03-08T01:11:00.422Z,-23260.47
2023-03-08T01:13:03.332Z,-23258.88
2023-03-08T01:15:07.741Z,-23258.56
2023-03-08T01:17:11.729Z,-23256.00
2023-03-08T01:19:14.325Z,-23257.44
2023-03-08T01:21:17.265Z,-23256.66
2023-03-08T01:23:19.871Z,-23255.38
2023-03-08T01:25:22.558Z,-23252.50
2023-03-08T01:27:25.248Z,-23254.59
2023-03-08T01:29:28.148Z,-23249.97
2023-03-08T01:31:31.818Z,-23248.38
2023-03-08T01:33:36.099Z,-23245.50
2023-03-08T01:35:39.115Z,-23245.34
2023-03-08T01:37:41.961Z,-23245.19
2023-03-08T01:39:44.823Z,-23245.34
2023-03-08T01:41:47.506Z,-23244.84
2023-03-08T01:43:50.359Z,-23244.38
2023-03-08T01:46:09.380Z,-23242.78
2023-03-08T01:48:13.866Z,-23239.59
2023-03-08T01:50:17.920Z,-23239.44
2023-03-08T01:52:26.344Z,-23238.78
2023-03-08T01:54:33.971Z,-23237.19
2023-03-08T01:56:38.473Z,-23236.09
2023-03-08T01:58:42.814Z,-23238.31
2023-03-08T02:00:45.510Z,-23235.75
2023-03-08T02:02:52.978Z,-23234.66
2023-03-08T02:04:55.558Z,-23234.31
2023-03-08T02:07:00.026Z,-23233.53
2023-03-08T02:09:04.970Z,-23232.09
2023-03-08T02:11:07.674Z,-23232.41
2023-03-08T02:13:11.571Z,-23232.72
2023-03-08T02:15:18.321Z,-23234.00
2023-03-08T02:17:20.994Z,-23235.13
2023-03-08T02:19:28.550Z,-23235.75
2023-03-08T02:21:33.133Z,-23237.34
2023-03-08T02:23:37.073Z,-23236.72
2023-03-08T02:25:40.335Z,-23238.47
2023-03-08T02:27:43.362Z,-23238.63
2023-03-08T02:29:46.042Z,-23238.63
2023-03-08T02:31:48.676Z,-23238.00
2023-03-08T02:33:51.292Z,-23239.13
2023-03-08T02:35:54.423Z,-23238.00
2023-03-08T02:37:57.335Z,-23236.88
2023-03-08T02:40:01.412Z,-23237.19
2023-03-08T02:42:04.076Z,-23238.16
2023-03-08T02:44:06.826Z,-23237.34
2023-03-08T02:46:12.055Z,-23237.19
2023-03-08T02:48:16.172Z,-23237.50
2023-03-08T02:50:19.046Z,-23238.63
2023-03-08T02:52:22.868Z,-23239.13
2023-03-08T02:54:25.491Z,-23238.16
2023-03-08T02:56:29.545Z,-23240.38
2023-03-08T02:58:32.138Z,-23240.06
2023-03-08T03:00:35.426Z,-23239.13
2023-03-08T03:02:38.378Z,-23237.84
2023-03-08T03:04:41.054Z,-23240.38
2023-03-08T03:06:43.640Z,-23240.38
2023-03-08T03:08:46.791Z,-23241.66
2023-03-08T03:10:49.412Z,-23241.66
2023-03-08T03:12:53.415Z,-23242.31
2023-03-08T03:14:55.994Z,-23242.94
2023-03-08T03:17:00.377Z,-23242.94
2023-03-08T03:19:03.011Z,-23242.94
2023-03-08T03:21:06.933Z,-23243.91
2023-03-08T03:23:09.667Z,-23245.00
2023-03-08T03:25:12.302Z,-23245.19
2023-03-08T03:27:14.962Z,-23241.97
2023-03-08T03:29:19.430Z,-23244.06
2023-03-08T03:31:24.602Z,-23244.22
2023-03-08T03:33:27.409Z,-23243.75
2023-03-08T03:35:29.978Z,-23243.56
2023-03-08T03:37:35.418Z,-23244.69
2023-03-08T03:39:39.097Z,-23244.06
2023-03-08T03:41:41.697Z,-23244.06
2023-03-08T03:43:44.584Z,-23246.44
2023-03-08T03:45:57.651Z,-23245.66
2023-03-08T03:48:00.502Z,-23244.84
2023-03-08T03:50:03.206Z,-23245.97
2023-03-08T03:52:06.344Z,-23245.50
2023-03-08T03:54:09.008Z,-23245.97
2023-03-08T03:56:14.884Z,-23246.13
2023-03-08T03:58:17.916Z,-23246.13
2023-03-08T04:00:22.047Z,-23245.81
2023-03-08T04:02:26.077Z,-23246.13
2023-03-08T04:04:28.673Z,-23245.81
2023-03-08T04:06:33.633Z,-23246.94
2023-03-08T04:08:41.950Z,-23248.03
2023-03-08T04:10:44.755Z,-23247.41
2023-03-08T04:12:49.321Z,-23246.13
2023-03-08T04:14:51.993Z,-23246.94
2023-03-08T04:16:54.633Z,-23246.28
2023-03-08T04:19:00.577Z,-23246.94
2023-03-08T04:21:03.156Z,-23245.50
2023-03-08T04:23:05.772Z,-23245.97
2023-03-08T04:25:09.126Z,-23244.84
2023-03-08T04:27:11.722Z,-23244.69
2023-03-08T04:29:14.395Z,-23246.44
2023-03-08T04:31:19.631Z,-23249.00
2023-03-08T04:33:22.414Z,-23250.13
2023-03-08T04:35:26.375Z,-23250.59
2023-03-08T04:37:29.033Z,-23251.88
2023-03-08T04:39:31.919Z,-23249.97
2023-03-08T04:41:34.509Z,-23248.38
2023-03-08T04:43:37.685Z,-23247.56
2023-03-08T04:45:40.337Z,-23247.41
2023-03-08T04:47:42.962Z,-23246.78
2023-03-08T04:49:45.609Z,-23248.03
2023-03-08T04:51:49.585Z,-23250.44
2023-03-08T04:53:52.194Z,-23250.91
2023-03-08T04:55:55.647Z,-23251.56
2023-03-08T04:57:58.283Z,-23251.88
2023-03-08T05:00:00.866Z,-23251.22
2023-03-08T05:02:04.277Z,-23250.91
2023-03-08T05:04:06.901Z,-23252.19
2023-03-08T05:06:09.750Z,-23252.03
2023-03-08T05:08:13.709Z,-23252.19
2023-03-08T05:10:16.885Z,-23251.41
2023-03-08T05:12:20.113Z,-23253.47
2023-03-08T05:14:22.691Z,-23254.09
2023-03-08T05:16:26.141Z,-23253.47
2023-03-08T05:18:29.102Z,-23255.06
2023-03-08T05:20:31.688Z,-23256.34
2023-03-08T05:22:45.007Z,-23257.63
2023-03-08T05:24:55.598Z,-23257.63
2023-03-08T05:26:58.206Z,-23258.25
2023-03-08T05:29:03.374Z,-23260.47
2023-03-08T05:31:07.805Z,-23260.31
2023-03-08T05:33:10.409Z,-23261.13
2023-03-08T05:35:13.013Z,-23261.44
2023-03-08T05:37:15.669Z,-23261.91
2023-03-08T05:39:18.313Z,-23264.00
2023-03-08T05:41:22.638Z,-23263.03
2023-03-08T05:43:25.225Z,-23262.88
2023-03-08T05:45:27.980Z,-23263.84
2023-03-08T05:47:31.213Z,-23263.50
2023-03-08T05:49:33.753Z,-23264.16
2023-03-08T05:51:36.377Z,-23266.06
2023-03-08T05:53:39.798Z,-23264.94
2023-03-08T05:55:42.457Z,-23266.22
2023-03-08T05:57:46.506Z,-23267.19
2023-03-08T05:59:49.084Z,-23267.00
2023-03-08T06:01:51.726Z,-23267.34
2023-03-08T06:03:56.368Z,-23267.34
2023-03-08T06:05:58.983Z,-23269.72
2023-03-08T06:08:01.797Z,-23269.41
2023-03-08T06:10:05.897Z,-23268.94
2023-03-08T06:12:08.941Z,-23268.78
2023-03-08T06:14:13.398Z,-23266.53
2023-03-08T06:16:16.173Z,-23264.47
2023-03-08T06:18:18.821Z,-23264.94
2023-03-08T06:20:21.788Z,-23264.63
2023-03-08T06:22:24.429Z,-23264.78
2023-03-08T06:24:27.103Z,-23265.09
2023-03-08T06:26:29.771Z,-23266.88
2023-03-08T06:28:32.633Z,-23266.06
2023-03-08T06:30:36.690Z,-23264.78
2023-03-08T06:32:39.427Z,-23266.06
2023-03-08T06:34:42.209Z,-23265.59
2023-03-08T06:36:44.832Z,-23265.09
2023-03-08T06:38:48.580Z,-23267.19
2023-03-08T06:40:51.293Z,-23268.44
2023-03-08T06:42:53.929Z,-23270.38
2023-03-08T06:44:56.497Z,-23268.78
2023-03-08T06:47:00.496Z,-23271.81
2023-03-08T06:49:04.255Z,-23272.75
2023-03-08T06:51:07.068Z,-23277.22
2023-03-08T06:53:10.383Z,-23278.34
2023-03-08T06:55:13.091Z,-23278.66
2023-03-08T06:57:15.649Z,-23279.44
2023-03-08T06:59:18.251Z,-23276.59
2023-03-08T07:01:21.017Z,-23278.34
2023-03-08T07:03:25.350Z,-23281.19
2023-03-08T07:05:28.630Z,-23284.38
2023-03-08T07:07:31.354Z,-23285.34
2023-03-08T07:09:34.052Z,-23286.94
2023-03-08T07:11:38.754Z,-23282.31
2023-03-08T07:13:41.492Z,-23281.84
2023-03-08T07:15:44.206Z,-23280.56
2023-03-08T07:17:47.673Z,-23285.66
2023-03-08T07:19:51.705Z,-23284.88
2023-03-08T07:21:54.421Z,-23286.47
2023-03-08T07:23:57.094Z,-23284.38
2023-03-08T07:25:59.856Z,-23282.00
2023-03-08T07:28:02.498Z,-23282.81
2023-03-08T07:30:06.545Z,-23283.91
2023-03-08T07:32:09.421Z,-23284.38
2023-03-08T07:34:12.892Z,-23285.50
2023-03-08T07:36:16.936Z,-23283.91
2023-03-08T07:38:20.138Z,-23285.03
2023-03-08T07:40:22.844Z,-23293.63
2023-03-08T07:42:27.251Z,-23287.91
2023-03-08T07:44:29.869Z,-23289.66
2023-03-08T07:46:32.590Z,-23295.69
2023-03-08T07:48:35.211Z,-23295.06
2023-03-08T07:50:38.141Z,-23290.59
2023-03-08T07:52:42.130Z,-23289.66
2023-03-08T07:54:44.959Z,-23289.31
2023-03-08T07:56:47.695Z,-23290.13
2023-03-08T07:58:50.266Z,-23290.75
2023-03-08T08:00:52.893Z,-23291.25
2023-03-08T08:02:55.565Z,-23295.38
2023-03-08T08:04:58.222Z,-23293.78
2023-03-08T08:07:00.868Z,-23294.59
2023-03-08T08:09:05.092Z,-23295.38
2023-03-08T08:11:14.391Z,-23293.94
2023-03-08T08:13:17.005Z,-23294.09
2023-03-08T08:15:19.672Z,-23295.88
2023-03-08T08:17:23.236Z,-23296.97
2023-03-08T08:19:26.335Z,-23297.94
2023-03-08T08:21:29.277Z,-23300.31
2023-03-08T08:23:32.956Z,-23302.22
2023-03-08T08:25:36.881Z,-23301.91
2023-03-08T08:27:39.464Z,-23303.50
2023-03-08T08:29:44.013Z,-23304.63
2023-03-08T08:31:46.676Z,-23312.09
2023-03-08T08:33:49.632Z,-23305.91
2023-03-08T08:35:52.240Z,-23313.38
2023-03-08T08:37:54.860Z,-23310.50
2023-03-08T08:39:57.529Z,-23314.50
2023-03-08T08:42:01.551Z,-23314.19
2023-03-08T08:44:04.640Z,-23314.97
2023-03-08T08:46:07.297Z,-23311.47
2023-03-08T08:48:09.951Z,-23312.91
2023-03-08T08:50:14.116Z,-23311.16
2023-03-08T08:52:16.884Z,-23314.66
2023-03-08T08:54:19.542Z,-23318.31
2023-03-08T08:56:28.030Z,-23318.31
2023-03-08T08:58:32.455Z,-23318.97
2023-03-08T09:00:36.104Z,-23320.72
2023-03-08T09:02:38.800Z,-23319.91
2023-03-08T09:04:41.598Z,-23319.75
2023-03-08T09:06:44.465Z,-23316.41
2023-03-08T09:08:49.570Z,-23319.09
2023-03-08T09:10:52.197Z,-23319.09
2023-03-08T09:12:56.131Z,-23320.53
2023-03-08T09:15:01.233Z,-23321.03
2023-03-08T09:17:06.550Z,-23320.22
2023-03-08T09:19:09.310Z,-23319.75
2023-03-08T09:21:12.105Z,-23320.38
2023-03-08T09:23:14.756Z,-23319.09
2023-03-08T09:25:19.522Z,-23316.25
2023-03-08T09:27:22.168Z,-23320.88
2023-03-08T09:29:24.777Z,-23329.94
2023-03-08T09:31:28.857Z,-23321.34
2023-03-08T09:33:32.387Z,-23321.66
2023-03-08T09:35:35.052Z,-23321.34
2023-03-08T09:37:38.018Z,-23324.69
2023-03-08T09:39:41.100Z,-23324.22
2023-03-08T09:41:50.813Z,-23324.03
2023-03-08T09:44:05.648Z,-23324.69
2023-03-08T09:46:13.955Z,-23332.31
2023-03-08T09:48:24.814Z,-23331.38
2023-03-08T09:50:35.867Z,-23341.41
2023-03-08T09:52:41.692Z,-23332.97
2023-03-08T09:54:46.251Z,-23330.25
2023-03-08T09:56:51.138Z,-23335.66
2023-03-08T09:58:56.841Z,-23340.28
2023-03-08T10:01:05.789Z,-23340.44
2023-03-08T10:03:30.446Z,-23347.28
2023-03-08T10:05:37.412Z,-23341.25
2023-03-08T10:07:49.627Z,-23341.41
2023-03-08T10:10:03.072Z,-23335.97
2023-03-08T10:12:16.587Z,-23350.00
2023-03-08T10:14:23.065Z,-23345.69
2023-03-08T10:16:28.282Z,-23344.72
2023-03-08T10:18:39.007Z,-23349.50
2023-03-08T10:20:42.966Z,-23350.63
2023-03-08T10:22:50.465Z,-23351.25
2023-03-08T10:24:58.149Z,-23355.25
2023-03-08T10:27:07.622Z,-23364.47
2023-03-08T10:29:12.225Z,-23368.13
2023-03-08T10:31:22.488Z,-23379.88
2023-03-08T10:33:28.082Z,-23387.84
2023-03-08T10:35:37.615Z,-23390.38
2023-03-08T10:37:40.714Z,-23394.03
2023-03-08T10:39:53.345Z,-23395.94
2023-03-08T10:41:57.718Z,-23399.75
2023-03-08T10:44:01.345Z,-23403.72
2023-03-08T10:46:06.438Z,-23406.28
2023-03-08T10:48:21.200Z,-23411.66
2023-03-08T10:50:26.362Z,-23426.59
2023-03-08T10:52:30.442Z,-23437.53
2023-03-08T10:54:33.136Z,-23441.53
2023-03-08T10:56:39.163Z,-23448.81
2023-03-08T10:58:41.861Z,-23444.53
2023-03-08T11:00:44.882Z,-23450.41
2023-03-08T11:02:48.157Z,-23457.22
2023-03-08T11:04:56.415Z,-23455.31
2023-03-08T11:06:59.810Z,-23453.41
2023-03-08T11:09:06.132Z,-23452.00
2023-03-08T11:11:11.582Z,-23457.69
2023-03-08T11:13:24.617Z,-23463.25
2023-03-08T11:15:27.560Z,-23467.38
2023-03-08T11:17:37.583Z,-23467.53
2023-03-08T11:19:51.076Z,-23470.38
2023-03-08T11:22:03.580Z,-23478.00
2023-03-08T11:24:18.598Z,-23479.25
2023-03-08T11:26:28.964Z,-23473.25
2023-03-08T11:28:53.830Z,-23474.50
2023-03-08T11:31:09.389Z,-23478.94
2023-03-08T11:33:32.747Z,-23480.53
2023-03-08T11:35:42.244Z,-23480.84
2023-03-08T11:37:51.431Z,-23481.31
2023-03-08T11:40:05.707Z,-23481.47
2023-03-08T11:42:21.690Z,-23484.66
2023-03-08T11:44:45.496Z,-23485.59
2023-03-08T11:46:59.782Z,-23488.47
2023-03-08T11:49:23.062Z,-23490.38
2023-03-08T11:51:33.841Z,-23490.53
2023-03-08T11:53:47.501Z,-23490.38
2023-03-08T11:56:11.224Z,-23495.13
2023-03-08T11:58:20.427Z,-23495.44
2023-03-08T12:00:29.977Z,-23491.94
2023-03-08T12:02:38.679Z,-23493.69
2023-03-08T12:04:47.231Z,-23494.50
2023-03-08T12:06:50.337Z,-23494.16
2023-03-08T12:08:59.012Z,-23494.97
2023-03-08T12:11:06.613Z,-23494.66
2023-03-08T12:13:18.556Z,-23496.22
2023-03-08T12:15:27.765Z,-23497.03
2023-03-08T12:17:36.925Z,-23501.13
2023-03-08T12:19:44.228Z,-23500.81
2023-03-08T12:21:53.824Z,-23504.63
2023-03-08T12:24:12.836Z,-23514.28
2023-03-08T12:26:20.720Z,-23506.84
2023-03-08T12:28:28.278Z,-23507.78
2023-03-08T12:30:45.096Z,-23510.97
2023-03-08T12:32:49.767Z,-23511.13
2023-03-08T12:35:02.780Z,-23512.53
2023-03-08T12:37:06.194Z,-23511.28
2023-03-08T12:39:26.443Z,-23507.47
2023-03-08T12:41:32.318Z,-23507.78
2023-03-08T12:43:36.544Z,-23511.28
2023-03-08T12:45:40.707Z,-23520.00
2023-03-08T12:47:43.412Z,-23518.56
2023-03-08T12:49:48.881Z,-23524.56
2023-03-08T12:52:01.182Z,-23529.16
2023-03-08T12:54:05.598Z,-23527.75
2023-03-08T12:56:22.531Z,-23523.78
2023-03-08T12:58:26.623Z,-23526.78
2023-03-08T13:00:32.175Z,-23541.53
2023-03-08T13:02:36.571Z,-23535.97
2023-03-08T13:04:42.547Z,-23536.13
2023-03-08T13:07:13.335Z,-23539.78
2023-03-08T13:09:24.114Z,-23526.16
2023-03-08T13:11:38.566Z,-23524.56
2023-03-08T13:13:50.433Z,-23522.69
2023-03-08T13:16:06.441Z,-23533.75
2023-03-08T13:18:15.567Z,-23533.13
2023-03-08T13:20:22.659Z,-23539.78
2023-03-08T13:22:29.789Z,-23537.25
2023-03-08T13:24:44.429Z,-23530.59
2023-03-08T13:27:24.540Z,-23527.59
2023-03-08T13:29:36.101Z,-23527.13
2023-03-08T13:31:38.984Z,-23532.03
2023-03-08T13:33:45.172Z,-23531.22
2023-03-08T13:35:56.952Z,-23529.00
2023-03-08T13:38:01.139Z,-23523.78
2023-03-08T13:40:07.757Z,-23530.91
2023-03-08T13:42:11.440Z,-23532.03
2023-03-08T13:44:16.735Z,-23535.97
2023-03-08T13:46:23.778Z,-23536.94
2023-03-08T13:48:31.083Z,-23541.34
2023-03-08T13:50:36.103Z,-23540.72
2023-03-08T13:52:39.540Z,-23537.56
2023-03-08T13:54:46.969Z,-23540.41
2023-03-08T13:56:54.023Z,-23541.34
2023-03-08T13:59:00.116Z,-23539.78
2023-03-08T14:01:05.389Z,-23539.78
2023-03-08T14:03:21.272Z,-23547.69
2023-03-08T14:05:26.292Z,-23553.38
2023-03-08T14:07:32.013Z,-23558.28
2023-03-08T14:09:34.756Z,-23564.47
2023-03-08T14:11:40.024Z,-23564.63
2023-03-08T14:13:48.061Z,-23567.31
2023-03-08T14:15:56.768Z,-23559.06
2023-03-08T14:18:00.735Z,-23560.34
2023-03-08T14:20:17.802Z,-23560.97
2023-03-08T14:22:37.813Z,-23554.03
2023-03-08T14:24:44.861Z,-23547.69
2023-03-08T14:26:56.575Z,-23549.91
2023-03-08T14:29:14.065Z,-23547.22
2023-03-08T14:31:27.243Z,-23544.84
2023-03-08T14:33:41.834Z,-23547.84
2023-03-08T14:35:55.446Z,-23543.56
2023-03-08T14:37:58.948Z,-23545.47
2023-03-08T14:40:21.691Z,-23545.78
2023-03-08T14:42:27.769Z,-23548.31
2023-03-08T14:44:30.771Z,-23548.63
2023-03-08T14:46:33.669Z,-23547.22
2023-03-08T14:48:38.295Z,-23550.84
2023-03-08T14:50:41.139Z,-23549.75
2023-03-08T14:52:49.570Z,-23548.63
2023-03-08T14:54:52.335Z,-23545.31
2023-03-08T14:56:55.041Z,-23542.47
2023-03-08T14:59:01.913Z,-23544.06
2023-03-08T15:01:04.852Z,-23537.25
2023-03-08T15:03:07.496Z,-23534.38
2023-03-08T15:05:22.483Z,-23535.03
2023-03-08T15:07:35.507Z,-23535.81
2023-03-08T15:09:39.674Z,-23538.34
2023-03-08T15:11:43.266Z,-23543.41
2023-03-08T15:13:46.440Z,-23541.69
2023-03-08T15:15:49.614Z,-23540.09
2023-03-08T15:17:53.977Z,-23543.25
2023-03-08T15:19:59.075Z,-23539.78
2023-03-08T15:22:05.328Z,-23544.53
2023-03-08T15:24:08.741Z,-23549.59
2023-03-08T15:26:18.207Z,-23546.44
2023-03-08T15:28:23.848Z,-23543.88
2023-03-08T15:30:28.435Z,-23546.25
2023-03-08T15:32:31.102Z,-23542.00
2023-03-08T15:34:35.009Z,-23540.41
2023-03-08T15:36:52.670Z,-23536.59
2023-03-08T15:38:55.545Z,-23537.09
2023-03-08T15:40:58.548Z,-23539.00
2023-03-08T15:43:02.762Z,-23537.41
2023-03-08T15:45:05.878Z,-23538.19
2023-03-08T15:47:10.919Z,-23536.28
2023-03-08T15:49:14.059Z,-23537.88
2023-03-08T15:51:31.180Z,-23536.78
2023-03-08T15:53:36.040Z,-23537.41
2023-03-08T15:55:40.416Z,-23537.09
2023-03-08T15:57:43.447Z,-23536.44
2023-03-08T15:59:48.427Z,-23538.19
2023-03-08T16:01:51.362Z,-23537.41
2023-03-08T16:03:55.003Z,-23539.63
2023-03-08T16:05:58.645Z,-23540.41
2023-03-08T16:08:04.130Z,-23541.69
2023-03-08T16:10:09.249Z,-23541.69
2023-03-08T16:12:12.608Z,-23543.56
2023-03-08T16:14:17.936Z,-23542.47
2023-03-08T16:16:25.921Z,-23542.78
2023-03-08T16:18:40.443Z,-23544.38
2023-03-08T16:20:46.469Z,-23543.41
2023-03-08T16:22:52.427Z,-23543.56
2023-03-08T16:24:55.275Z,-23536.13
2023-03-08T16:26:59.522Z,-23525.69
2023-03-08T16:29:02.335Z,-23527.44
2023-03-08T16:31:06.042Z,-23526.00
2023-03-08T16:33:10.249Z,-23522.53
2023-03-08T16:35:13.127Z,-23523.78
2023-03-08T16:37:16.799Z,-23524.25
2023-03-08T16:39:20.264Z,-23529.00
2023-03-08T16:41:24.307Z,-23527.13
2023-03-08T16:43:32.261Z,-23525.53
2023-03-08T16:45:56.866Z,-23522.53
2023-03-08T16:47:59.547Z,-23517.28
2023-03-08T16:50:04.079Z,-23512.22
2023-03-08T16:52:07.329Z,-23504.31
2023-03-08T16:54:11.083Z,-23506.22
2023-03-08T16:56:18.851Z,-23502.72
2023-03-08T16:58:21.807Z,-23502.41
2023-03-08T17:00:25.616Z,-23503.69
2023-03-08T17:02:28.288Z,-23500.19
2023-03-08T17:04:31.166Z,-23501.47
2023-03-08T17:06:35.595Z,-23501.28
2023-03-08T17:08:38.769Z,-23501.78
2023-03-08T17:10:43.290Z,-23504.63
2023-03-08T17:12:46.474Z,-23504.63
2023-03-08T17:14:49.207Z,-23505.25
2023-03-08T17:16:51.902Z,-23502.88
2023-03-08T17:18:55.261Z,-23505.25
2023-03-08T17:20:57.985Z,-23502.25
2023-03-08T17:23:02.241Z,-23500.81
2023-03-08T17:25:08.414Z,-23500.03
2023-03-08T17:27:13.959Z,-23497.97
2023-03-08T17:29:16.884Z,-23498.44
2023-03-08T17:31:21.981Z,-23498.28
2023-03-08T17:33:26.236Z,-23496.72
2023-03-08T17:35:29.338Z,-23497.03
2023-03-08T17:37:31.982Z,-23497.81
2023-03-08T17:39:36.154Z,-23497.66
2023-03-08T17:41:39.448Z,-23497.66
2023-03-08T17:43:42.486Z,-23497.97
2023-03-08T17:45:45.718Z,-23496.38
2023-03-08T17:47:48.684Z,-23496.38
2023-03-08T17:49:51.460Z,-23494.66
2023-03-08T17:51:54.851Z,-23491.78
2023-03-08T17:53:59.774Z,-23488.78
2023-03-08T17:56:06.562Z,-23488.78
2023-03-08T17:58:09.336Z,-23487.34
2023-03-08T18:00:13.688Z,-23486.25
2023-03-08T18:02:20.826Z,-23487.19
2023-03-08T18:04:23.724Z,-23488.16
2023-03-08T18:06:30.070Z,-23488.94
2023-03-08T18:08:33.438Z,-23490.53
2023-03-08T18:10:36.231Z,-23488.94
2023-03-08T18:12:40.317Z,-23488.47
2023-03-08T18:14:43.617Z,-23489.41
2023-03-08T18:16:46.442Z,-23490.53
2023-03-08T18:18:50.115Z,-23486.56
2023-03-08T18:20:57.124Z,-23487.19
2023-03-08T18:23:07.199Z,-23484.03
2023-03-08T18:25:10.516Z,-23484.34
2023-03-08T18:27:13.377Z,-23482.28
2023-03-08T18:29:17.599Z,-23481.97
2023-03-08T18:31:23.328Z,-23480.69
2023-03-08T18:33:26.142Z,-23481.66
2023-03-08T18:35:29.272Z,-23480.84
2023-03-08T18:37:32.084Z,-23478.78
2023-03-08T18:39:34.918Z,-23483.06
2023-03-08T18:41:37.604Z,-23485.13
2023-03-08T18:43:40.970Z,-23486.88
2023-03-08T18:45:52.463Z,-23484.34
2023-03-08T18:47:55.232Z,-23484.34
2023-03-08T18:49:57.882Z,-23484.81
2023-03-08T18:52:00.774Z,-23486.88
2023-03-08T18:54:03.799Z,-23486.09
2023-03-08T18:56:07.207Z,-23486.56
2023-03-08T18:58:10.077Z,-23487.34
2023-03-08T19:00:15.115Z,-23486.56
2023-03-08T19:02:21.243Z,-23486.56
2023-03-08T19:04:24.226Z,-23486.88
2023-03-08T19:06:27.622Z,-23484.03
2023-03-08T19:08:30.300Z,-23485.28
2023-03-08T19:10:33.408Z,-23485.75
2023-03-08T19:12:37.980Z,-23483.72
2023-03-08T19:14:40.829Z,-23484.03
2023-03-08T19:16:43.539Z,-23482.44
2023-03-08T19:18:48.080Z,-23484.81
2023-03-08T19:20:50.929Z,-23484.97
2023-03-08T19:22:53.544Z,-23485.13
2023-03-08T19:24:56.631Z,-23483.53
2023-03-08T19:27:00.428Z,-23482.13
2023-03-08T19:29:05.453Z,-23479.91
2023-03-08T19:31:17.652Z,-23475.78
2023-03-08T19:33:30.474Z,-23471.19
2023-03-08T19:35:36.577Z,-23467.69
2023-03-08T19:37:39.546Z,-23462.47
2023-03-08T19:39:43.614Z,-23462.47
2023-03-08T19:41:49.078Z,-23459.13
2023-03-08T19:43:51.746Z,-23459.59
2023-03-08T19:45:54.530Z,-23458.66
2023-03-08T19:47:57.676Z,-23458.03
2023-03-08T19:50:00.311Z,-23455.16
2023-03-08T19:52:06.644Z,-23457.84
2023-03-08T19:54:10.458Z,-23455.63
2023-03-08T19:56:17.197Z,-23454.53
2023-03-08T19:58:20.097Z,-23453.72
2023-03-08T20:00:23.383Z,-23454.22
2023-03-08T20:02:26.162Z,-23453.56
2023-03-08T20:04:29.815Z,-23455.00
2023-03-08T20:06:35.015Z,-23454.22
2023-03-08T20:08:40.490Z,-23452.94
2023-03-08T20:10:43.232Z,-23454.53
2023-03-08T20:12:47.038Z,-23454.22
2023-03-08T20:14:49.987Z,-23454.84
2023-03-08T20:16:52.622Z,-23454.53
2023-03-08T20:18:57.495Z,-23454.38
2023-03-08T20:21:02.188Z,-23457.38
2023-03-08T20:23:05.163Z,-23458.66
2023-03-08T20:25:11.800Z,-23460.88
2023-03-08T20:27:14.406Z,-23461.19
2023-03-08T20:29:17.780Z,-23464.19
2023-03-08T20:31:21.000Z,-23465.16
2023-03-08T20:33:23.733Z,-23463.88
2023-03-08T20:35:26.667Z,-23466.09
2023-03-08T20:37:29.370Z,-23467.84
2023-03-08T20:39:32.369Z,-23468.63
2023-03-08T20:41:36.425Z,-23469.59
2023-03-08T20:43:40.302Z,-23470.38
2023-03-08T20:45:43.085Z,-23470.88
2023-03-08T20:47:46.582Z,-23473.25
2023-03-08T20:49:49.853Z,-23475.94
2023-03-08T20:51:52.642Z,-23474.50
2023-03-08T20:53:58.620Z,-23474.19
2023-03-08T20:56:06.066Z,-23473.88
2023-03-08T20:58:10.219Z,-23471.81
2023-03-08T21:00:14.506Z,-23470.69
2023-03-08T21:02:17.383Z,-23471.66
2023-03-08T21:04:20.463Z,-23472.91
2023-03-08T21:06:25.492Z,-23474.66
2023-03-08T21:08:28.422Z,-20630.06
2023-03-08T21:10:32.879Z,-17359.34
2023-03-08T21:12:37.628Z,-10266.59
2023-03-08T21:14:43.208Z,-10912.75
2023-03-08T21:16:46.120Z,-12525.34
2023-03-08T21:18:50.296Z,-11235.13
2023-03-08T21:20:53.673Z,-14782.91
2023-03-08T21:22:56.456Z,-13171.03
2023-03-08T21:24:59.134Z,-12848.50
2023-03-08T21:27:01.851Z,-16073.78
2023-03-08T21:29:06.676Z,-19418.44
2023-03-08T21:31:11.887Z,-22872.28
2023-03-08T21:33:14.623Z,-23479.59
2023-03-08T21:35:17.304Z,-23480.22
2023-03-08T21:37:19.957Z,-23480.22
2023-03-08T21:39:22.845Z,-23480.69
2023-03-08T21:41:28.210Z,-23479.59
2023-03-08T21:43:30.938Z,-23478.16
2023-03-08T21:45:33.881Z,-22187.78
2023-03-08T21:47:38.070Z,-23480.06
2023-03-08T21:49:40.894Z,-23480.84
2023-03-08T21:51:43.539Z,-10915.69
2023-03-08T21:53:46.354Z,-22611.06
2023-03-08T21:55:49.017Z,-13172.53
2023-03-08T21:57:51.842Z,-10591.25
2023-03-08T21:59:54.588Z,-11559.56
2023-03-08T22:01:58.693Z,-14462.69
2023-03-08T22:04:04.169Z,-18007.38
2023-03-08T22:06:07.330Z,-14461.47
2023-03-08T22:08:10.088Z,7525.56
2023-03-08T22:10:14.221Z,19213.63
2023-03-08T22:12:19.862Z,31263.81
2023-03-08T22:14:22.589Z,42369.53
2023-03-08T22:16:26.674Z,52847.00
2023-03-08T22:18:29.606Z,60730.72
2023-03-08T22:20:33.818Z,66643.66
2023-03-08T22:22:36.800Z,71251.81
2023-03-08T22:24:39.673Z,76530.06
2023-03-08T22:26:42.687Z,78845.63
2023-03-08T22:28:45.541Z,80502.16
2023-03-08T22:30:48.595Z,80170.50
2023-03-08T22:32:51.781Z,79177.81
2023-03-08T22:34:54.454Z,78191.50
2023-03-08T22:36:58.742Z,76210.75
2023-03-08T22:39:01.834Z,72602.03
2023-03-08T22:41:10.432Z,61082.88
2023-03-08T22:43:13.294Z,45005.81
2023-03-08T22:45:16.460Z,33563.84
2023-03-08T22:47:19.299Z,19874.41
2023-03-08T22:49:22.070Z,6556.16
2023-03-08T22:51:25.578Z,6554.97
2023-03-08T22:53:29.650Z,10122.78
2023-03-08T22:55:32.265Z,10771.53
2023-03-08T22:57:37.177Z,-5100.53
2023-03-08T22:59:39.850Z,-14142.13
2023-03-08T23:01:42.853Z,-14141.88
2023-03-08T23:03:46.216Z,-23480.84
2023-03-08T23:05:49.007Z,-23481.66
2023-03-08T23:07:53.230Z,-23481.47
2023-03-08T23:09:57.483Z,-23479.59
2023-03-08T23:12:02.694Z,-23478.94
2023-03-08T23:14:06.361Z,-23479.25
2023-03-08T23:16:09.575Z,-23478.16
2023-03-08T23:18:12.335Z,-23482.28
2023-03-08T23:20:19.826Z,-23480.22
2023-03-08T23:22:22.517Z,-23480.22
2023-03-08T23:24:25.296Z,-23477.03
2023-03-08T23:26:29.579Z,-23476.88
2023-03-08T23:28:35.214Z,-23479.09
2023-03-08T23:30:38.160Z,-23477.69
2023-03-08T23:32:42.535Z,-23480.22
2023-03-08T23:34:45.237Z,-23478.78
2023-03-08T23:36:48.044Z,-23481.16
2023-03-08T23:38:51.408Z,-23478.94
2023-03-08T23:40:54.118Z,-23475.47
2023-03-08T23:42:58.317Z,-23474.19
2023-03-08T23:45:01.149Z,-23473.88
2023-03-08T23:47:03.782Z,-23474.34
2023-03-08T23:49:06.581Z,-23472.44